Jackson, Mississippi
Current Conditions -  °F | °C
As of 6:53 PM on Tuesday 21 Oct 2014 (Local Time) from KHKS Reporting Station
Clear Clear  
Wind Chill: 71°   Ceiling: Unl
Heat Index: 71°   Visibility: 10mi
Dew Point: 58°   Wind: 3mph
Humidity: 63%   Direction: 350°N
Pressure: 30.02"   Gusts: NA
Location:  32.3°N, 90.18°W
Report Text: KHKS 212353Z 35003KT 10SM CLR 22/14 A3002 RMK AO2 SLP157 T02170144 10261 20217 55001
Loading
Personal Weather Stations






























Interactive Weather Map
Tropical Storm Tracking
New forecast layout! Learn more

10-Day Weather Forecast

Advertisements
Track Severe Weather on mobile